West Peoria, Illinois
Current Conditions -  °F | °C
As of 2:54 AM on Thursday 27 Nov 2014 (Local Time) from KPIA Reporting Station
Haze Haze  
Wind Chill: 25°   Ceiling: 9000
Heat Index: 25°   Visibility: 6mi
Dew Point: 18°   Wind: 3mph
Humidity: 75%   Direction: 320°NW
Pressure: 30.31"   Gusts: NA
Location:  40.7064°N, 89.6585°W
Report Text: KPIA 270854Z 32003KT 6SM HZ SCT017 OVC090 M04/M08 A3031 RMK AO2 SLP273 T10391078 53021
Loading
Personal Weather Stations






























Interactive Weather Map New forecast layout! Learn more

10-Day Weather Forecast

Advertisements
Track Severe Weather on mobile